WXM80 ListenWXM80 Stop

You find our weather info also at:

UK Metoffice

WeatherCloud

Weather Underground

Northeastern Weather Network

AWEKAS

Citizen Weather Observer Program (CWOP)

HAMweather, WeatherForYou, PWS Weather


Weather Underground History page Text

Daily Summary for March 23, 2017 Units:  Both    English   Metric
« Previous Day
Next Day »
Daily Weekly Monthly Yearly Custom
  High: Low: Average:
Temperature: 42.0 °F /  5.6 °C 23.0 °F /  -5 °C 31.9 °F /  -0.1 °C
Dew Point: 25.5 °F /  -3.6 °C 3.9 °F /  -15.6 °C 10.2 °F /  -12.1 °C
Humidity: 72 % 26 % 42 %
Wind Speed: 12.5 mph /  20.1 km/h - 3.9 mph /  6.3 km/h
Wind Gust: 16.1 mph /  25.9 km/h - -
Wind:- - WNW
Pressure: 30.56 in /  1034.8 hPa 30.40 in /  1029.3 hPa -
Precipitation: 0.00 in /  0 mm    
Historical Graphs
 
 
Tabular Data for March 23, 2017
Time Temperature Dew Point Pressure Wind Wind Speed Wind Gust Humidity Rainfall Rate (Hourly)
00:03 25.1 °F /  -3.8 °C 4.7 °F /  -15.2 °C 30.40 in /  1029.3 hPa NW 6.1 mph /  9.8 km/h 11.0 mph /  17.7 km/h 41 % 0.00 in /  0 mm
00:08 25.0 °F /  -3.9 °C 4.6 °F /  -15.2 °C 30.41 in /  1029.7 hPa WNW 7.7 mph /  12.4 km/h 13.8 mph /  22.2 km/h 41 % 0.00 in /  0 mm
00:13 25.0 °F /  -3.9 °C 5.1 °F /  -14.9 °C 30.41 in /  1029.7 hPa NW 12.5 mph /  20.1 km/h 15.0 mph /  24.1 km/h 42 % 0.00 in /  0 mm
00:18 24.9 °F /  -3.9 °C 3.9 °F /  -15.6 °C 30.41 in /  1029.7 hPa NW 5.6 mph /  9 km/h 10.4 mph /  16.7 km/h 40 % 0.00 in /  0 mm
00:23 24.9 °F /  -3.9 °C 5.0 °F /  -15 °C 30.41 in /  1029.7 hPa NNW 5.4 mph /  8.7 km/h 13.8 mph /  22.2 km/h 42 % 0.00 in /  0 mm
00:28 24.8 °F /  -4 °C 4.4 °F /  -15.3 °C 30.42 in /  1030 hPa NNW 6.7 mph /  10.8 km/h 15.0 mph /  24.1 km/h 41 % 0.00 in /  0 mm
00:33 24.7 °F /  -4.1 °C 4.8 °F /  -15.1 °C 30.42 in /  1030 hPa NW 4.2 mph /  6.8 km/h 9.2 mph /  14.8 km/h 42 % 0.00 in /  0 mm
00:38 24.6 °F /  -4.1 °C 5.3 °F /  -14.8 °C 30.42 in /  1030 hPa WNW 5.6 mph /  9 km/h 13.0 mph /  20.9 km/h 43 % 0.00 in /  0 mm
00:43 24.6 °F /  -4.1 °C 4.2 °F /  -15.4 °C 30.42 in /  1030 hPa WNW 6.4 mph /  10.3 km/h 11.5 mph /  18.5 km/h 41 % 0.00 in /  0 mm
00:48 24.5 °F /  -4.2 °C 4.6 °F /  -15.2 °C 30.42 in /  1030 hPa North 6.4 mph /  10.3 km/h 10.4 mph /  16.7 km/h 42 % 0.00 in /  0 mm
00:53 24.4 °F /  -4.2 °C 5.1 °F /  -14.9 °C 30.42 in /  1030 hPa NNW 4.2 mph /  6.8 km/h 8.1 mph /  13 km/h 43 % 0.00 in /  0 mm
00:58 24.4 °F /  -4.2 °C 5.1 °F /  -14.9 °C 30.42 in /  1030 hPa WNW 5.0 mph /  8 km/h 10.4 mph /  16.7 km/h 43 % 0.00 in /  0 mm
01:03 24.3 °F /  -4.3 °C 4.5 °F /  -15.3 °C 30.42 in /  1030 hPa North 5.7 mph /  9.2 km/h 11.0 mph /  17.7 km/h 42 % 0.00 in /  0 mm
01:09 24.3 °F /  -4.3 °C 5.0 °F /  -15 °C 30.42 in /  1030 hPa NNW 4.3 mph /  6.9 km/h 9.2 mph /  14.8 km/h 43 % 0.00 in /  0 mm
01:14 24.2 °F /  -4.3 °C 4.9 °F /  -15.1 °C 30.42 in /  1030 hPa NW 6.9 mph /  11.1 km/h 10.4 mph /  16.7 km/h 43 % 0.00 in /  0 mm
01:19 24.2 °F /  -4.3 °C 4.9 °F /  -15.1 °C 30.42 in /  1030 hPa NNW 4.1 mph /  6.6 km/h 10.4 mph /  16.7 km/h 43 % 0.00 in /  0 mm
01:24 24.1 °F /  -4.4 °C 5.3 °F /  -14.8 °C 30.42 in /  1030 hPa NW 4.0 mph /  6.4 km/h 10.4 mph /  16.7 km/h 44 % 0.00 in /  0 mm
01:29 24.1 °F /  -4.4 °C 5.3 °F /  -14.8 °C 30.43 in /  1030.4 hPa North 5.5 mph /  8.9 km/h 9.0 mph /  14.5 km/h 44 % 0.00 in /  0 mm
01:34 24.0 °F /  -4.4 °C 5.2 °F /  -14.9 °C 30.43 in /  1030.4 hPa NW 6.0 mph /  9.7 km/h 10.4 mph /  16.7 km/h 44 % 0.00 in /  0 mm
01:39 24.0 °F /  -4.4 °C 5.2 °F /  -14.9 °C 30.43 in /  1030.4 hPa North 4.1 mph /  6.6 km/h 6.9 mph /  11.1 km/h 44 % 0.00 in /  0 mm
01:44 23.9 °F /  -4.5 °C 5.6 °F /  -14.7 °C 30.43 in /  1030.4 hPa NW 3.5 mph /  5.6 km/h 6.9 mph /  11.1 km/h 45 % 0.00 in /  0 mm
01:49 23.9 °F /  -4.5 °C 6.6 °F /  -14.1 °C 30.43 in /  1030.4 hPa WNW 5.2 mph /  8.4 km/h 13.0 mph /  20.9 km/h 47 % 0.00 in /  0 mm
01:54 23.9 °F /  -4.5 °C 6.1 °F /  -14.4 °C 30.43 in /  1030.4 hPa NW 4.1 mph /  6.6 km/h 8.1 mph /  13 km/h 46 % 0.00 in /  0 mm
01:59 23.8 °F /  -4.6 °C 6.0 °F /  -14.4 °C 30.43 in /  1030.4 hPa NW 2.9 mph /  4.7 km/h 8.1 mph /  13 km/h 46 % 0.00 in /  0 mm
02:04 23.8 °F /  -4.6 °C 6.5 °F /  -14.2 °C 30.43 in /  1030.4 hPa NNW 4.5 mph /  7.2 km/h 6.9 mph /  11.1 km/h 47 % 0.00 in /  0 mm
02:09 23.8 °F /  -4.6 °C 6.5 °F /  -14.2 °C 30.43 in /  1030.4 hPa NNW 4.1 mph /  6.6 km/h 11.5 mph /  18.5 km/h 47 % 0.00 in /  0 mm
02:14 23.7 °F /  -4.6 °C 6.4 °F /  -14.2 °C 30.43 in /  1030.4 hPa NW 1.9 mph /  3.1 km/h 6.9 mph /  11.1 km/h 47 % 0.00 in /  0 mm
02:19 23.7 °F /  -4.6 °C 6.4 °F /  -14.2 °C 30.43 in /  1030.4 hPa NW 5.8 mph /  9.3 km/h 10.4 mph /  16.7 km/h 47 % 0.00 in /  0 mm
02:24 23.7 °F /  -4.6 °C 6.8 °F /  -14 °C 30.43 in /  1030.4 hPa NNW 3.5 mph /  5.6 km/h 4.6 mph /  7.4 km/h 48 % 0.00 in /  0 mm
02:29 23.6 °F /  -4.7 °C 6.8 °F /  -14 °C 30.43 in /  1030.4 hPa NNW 2.8 mph /  4.5 km/h 4.6 mph /  7.4 km/h 48 % 0.00 in /  0 mm
02:31 23.6 °F /  -4.7 °C 6.8 °F /  -14 °C 30.44 in /  1030.7 hPa North 4.3 mph /  6.9 km/h 9.0 mph /  14.5 km/h 48 % 0.00 in /  0 mm
02:36 23.6 °F /  -4.7 °C 6.3 °F /  -14.3 °C 30.43 in /  1030.4 hPa NNW 5.1 mph /  8.2 km/h 8.1 mph /  13 km/h 47 % 0.00 in /  0 mm
02:41 23.6 °F /  -4.7 °C 6.8 °F /  -14 °C 30.43 in /  1030.4 hPa NW 2.3 mph /  3.7 km/h 4.6 mph /  7.4 km/h 48 % 0.00 in /  0 mm
02:46 23.5 °F /  -4.7 °C 6.7 °F /  -14.1 °C 30.43 in /  1030.4 hPa NNW 2.5 mph /  4 km/h 6.9 mph /  11.1 km/h 48 % 0.00 in /  0 mm
02:48 23.5 °F /  -4.7 °C 6.7 °F /  -14.1 °C 30.44 in /  1030.7 hPa North 2.1 mph /  3.4 km/h 7.0 mph /  11.3 km/h 48 % 0.00 in /  0 mm
02:53 23.5 °F /  -4.7 °C 6.7 °F /  -14.1 °C 30.44 in /  1030.7 hPa NNW 2.0 mph /  3.2 km/h 9.0 mph /  14.5 km/h 48 % 0.00 in /  0 mm
02:58 23.5 °F /  -4.7 °C 7.1 °F /  -13.8 °C 30.43 in /  1030.4 hPa NW 4.9 mph /  7.9 km/h 10.4 mph /  16.7 km/h 49 % 0.00 in /  0 mm
03:03 23.5 °F /  -4.7 °C 7.1 °F /  -13.8 °C 30.44 in /  1030.7 hPa NNW 3.0 mph /  4.8 km/h 10.0 mph /  16.1 km/h 49 % 0.00 in /  0 mm
03:08 23.5 °F /  -4.7 °C 6.7 °F /  -14.1 °C 30.44 in /  1030.7 hPa NW 3.0 mph /  4.8 km/h 12.0 mph /  19.3 km/h 48 % 0.00 in /  0 mm
03:13 23.5 °F /  -4.7 °C 6.7 °F /  -14.1 °C 30.44 in /  1030.7 hPa NNW 2.0 mph /  3.2 km/h 12.0 mph /  19.3 km/h 48 % 0.00 in /  0 mm
03:18 23.5 °F /  -4.7 °C 7.1 °F /  -13.8 °C 30.44 in /  1030.7 hPa NNW 5.0 mph /  8 km/h 8.0 mph /  12.9 km/h 49 % 0.00 in /  0 mm
03:23 23.5 °F /  -4.7 °C 7.1 °F /  -13.8 °C 30.44 in /  1030.7 hPa NNW 3.0 mph /  4.8 km/h 8.0 mph /  12.9 km/h 49 % 0.00 in /  0 mm
03:27 23.4 °F /  -4.8 °C 7.5 °F /  -13.6 °C 30.44 in /  1030.7 hPa NNE 2.8 mph /  4.5 km/h 6.9 mph /  11.1 km/h 50 % 0.00 in /  0 mm
03:32 23.4 °F /  -4.8 °C 7.9 °F /  -13.4 °C 30.44 in /  1030.7 hPa North 3.8 mph /  6.1 km/h 6.9 mph /  11.1 km/h 51 % 0.00 in /  0 mm
03:37 23.4 °F /  -4.8 °C 7.0 °F /  -13.9 °C 30.44 in /  1030.7 hPa NNW 2.3 mph /  3.7 km/h 5.0 mph /  8 km/h 49 % 0.00 in /  0 mm
03:42 23.4 °F /  -4.8 °C 7.5 °F /  -13.6 °C 30.44 in /  1030.7 hPa NNW 2.0 mph /  3.2 km/h 5.8 mph /  9.3 km/h 50 % 0.00 in /  0 mm
03:47 23.4 °F /  -4.8 °C 7.5 °F /  -13.6 °C 30.44 in /  1030.7 hPa NNW 3.0 mph /  4.8 km/h 7.0 mph /  11.3 km/h 50 % 0.00 in /  0 mm
03:52 23.3 °F /  -4.8 °C 7.4 °F /  -13.7 °C 30.44 in /  1030.7 hPa NNW 3.0 mph /  4.8 km/h 7.0 mph /  11.3 km/h 50 % 0.00 in /  0 mm
03:58 23.3 °F /  -4.8 °C 7.4 °F /  -13.7 °C 30.44 in /  1030.7 hPa North 3.0 mph /  4.8 km/h 4.6 mph /  7.4 km/h 50 % 0.00 in /  0 mm
04:03 23.3 °F /  -4.8 °C 7.4 °F /  -13.7 °C 30.44 in /  1030.7 hPa NW 2.6 mph /  4.2 km/h 3.5 mph /  5.6 km/h 50 % 0.00 in /  0 mm
04:08 23.3 °F /  -4.8 °C 7.4 °F /  -13.7 °C 30.45 in /  1031 hPa North 3.8 mph /  6.1 km/h 5.8 mph /  9.3 km/h 50 % 0.00 in /  0 mm
04:13 23.2 °F /  -4.9 °C 7.3 °F /  -13.7 °C 30.44 in /  1030.7 hPa NNW 2.9 mph /  4.7 km/h 8.1 mph /  13 km/h 50 % 0.00 in /  0 mm
04:18 23.2 °F /  -4.9 °C 7.3 °F /  -13.7 °C 30.45 in /  1031 hPa NNE 2.7 mph /  4.3 km/h 5.8 mph /  9.3 km/h 50 % 0.00 in /  0 mm
04:23 23.1 °F /  -4.9 °C 7.2 °F /  -13.8 °C 30.45 in /  1031 hPa North 0.1 mph /  0.2 km/h 4.6 mph /  7.4 km/h 50 % 0.00 in /  0 mm
04:28 23.1 °F /  -4.9 °C 7.6 °F /  -13.6 °C 30.45 in /  1031 hPa NNW 2.0 mph /  3.2 km/h 4.0 mph /  6.4 km/h 51 % 0.00 in /  0 mm
04:33 23.1 °F /  -4.9 °C 7.6 °F /  -13.6 °C 30.45 in /  1031 hPa North 3.8 mph /  6.1 km/h 5.8 mph /  9.3 km/h 51 % 0.00 in /  0 mm
04:38 23.1 °F /  -4.9 °C 8.1 °F /  -13.3 °C 30.45 in /  1031 hPa North 1.9 mph /  3.1 km/h 4.6 mph /  7.4 km/h 52 % 0.00 in /  0 mm
04:43 23.0 °F /  -5 °C 7.5 °F /  -13.6 °C 30.46 in /  1031.4 hPa NNW 3.2 mph /  5.1 km/h 5.8 mph /  9.3 km/h 51 % 0.00 in /  0 mm
04:48 23.0 °F /  -5 °C 7.5 °F /  -13.6 °C 30.46 in /  1031.4 hPa NW 1.5 mph /  2.4 km/h 4.0 mph /  6.4 km/h 51 % 0.00 in /  0 mm
04:53 23.1 °F /  -4.9 °C 8.1 °F /  -13.3 °C 30.46 in /  1031.4 hPa NNW 2.3 mph /  3.7 km/h 4.6 mph /  7.4 km/h 52 % 0.00 in /  0 mm
04:58 23.0 °F /  -5 °C 8.0 °F /  -13.3 °C 30.46 in /  1031.4 hPa NW 3.6 mph /  5.8 km/h 9.2 mph /  14.8 km/h 52 % 0.00 in /  0 mm
05:03 23.0 °F /  -5 °C 8.4 °F /  -13.1 °C 30.46 in /  1031.4 hPa NNW 1.9 mph /  3.1 km/h 3.5 mph /  5.6 km/h 53 % 0.00 in /  0 mm
05:08 23.1 °F /  -4.9 °C 8.5 °F /  -13.1 °C 30.47 in /  1031.7 hPa NNE 1.9 mph /  3.1 km/h 5.0 mph /  8 km/h 53 % 0.00 in /  0 mm
05:13 23.0 °F /  -5 °C 8.8 °F /  -12.9 °C 30.47 in /  1031.7 hPa North 0.8 mph /  1.3 km/h 3.5 mph /  5.6 km/h 54 % 0.00 in /  0 mm
05:18 23.0 °F /  -5 °C 8.8 °F /  -12.9 °C 30.47 in /  1031.7 hPa North 1.0 mph /  1.6 km/h 2.3 mph /  3.7 km/h 54 % 0.00 in /  0 mm
05:23 23.0 °F /  -5 °C 8.8 °F /  -12.9 °C 30.48 in /  1032.1 hPa NW 1.4 mph /  2.3 km/h 3.5 mph /  5.6 km/h 54 % 0.00 in /  0 mm
05:28 23.0 °F /  -5 °C 8.4 °F /  -13.1 °C 30.48 in /  1032.1 hPa NW 0.9 mph /  1.4 km/h 3.5 mph /  5.6 km/h 53 % 0.00 in /  0 mm
05:33 23.0 °F /  -5 °C 8.4 °F /  -13.1 °C 30.48 in /  1032.1 hPa NW 2.4 mph /  3.9 km/h 6.9 mph /  11.1 km/h 53 % 0.00 in /  0 mm
05:38 23.0 °F /  -5 °C 8.0 °F /  -13.3 °C 30.48 in /  1032.1 hPa North 1.9 mph /  3.1 km/h 7.0 mph /  11.3 km/h 52 % 0.00 in /  0 mm
05:43 23.0 °F /  -5 °C 8.4 °F /  -13.1 °C 30.48 in /  1032.1 hPa NNW 1.6 mph /  2.6 km/h 3.5 mph /  5.6 km/h 53 % 0.00 in /  0 mm
05:48 23.0 °F /  -5 °C 8.8 °F /  -12.9 °C 30.49 in /  1032.4 hPa WNW 1.2 mph /  1.9 km/h 5.8 mph /  9.3 km/h 54 % 0.00 in /  0 mm
05:53 23.1 °F /  -4.9 °C 8.1 °F /  -13.3 °C 30.49 in /  1032.4 hPa North 2.5 mph /  4 km/h 6.9 mph /  11.1 km/h 52 % 0.00 in /  0 mm
05:58 23.2 °F /  -4.9 °C 8.6 °F /  -13 °C 30.49 in /  1032.4 hPa NNW 1.7 mph /  2.7 km/h 5.8 mph /  9.3 km/h 53 % 0.00 in /  0 mm
06:03 23.3 °F /  -4.8 °C 8.2 °F /  -13.2 °C 30.50 in /  1032.7 hPa NW 4.0 mph /  6.4 km/h 11.5 mph /  18.5 km/h 52 % 0.00 in /  0 mm
06:08 23.4 °F /  -4.8 °C 6.6 °F /  -14.1 °C 30.50 in /  1032.7 hPa North 6.2 mph /  10 km/h 9.0 mph /  14.5 km/h 48 % 0.00 in /  0 mm
06:13 23.5 °F /  -4.7 °C 7.6 °F /  -13.6 °C 30.50 in /  1032.7 hPa NW 6.8 mph /  10.9 km/h 11.5 mph /  18.5 km/h 50 % 0.00 in /  0 mm
06:18 23.5 °F /  -4.7 °C 7.6 °F /  -13.6 °C 30.50 in /  1032.7 hPa NNW 4.4 mph /  7.1 km/h 5.0 mph /  8 km/h 50 % 0.00 in /  0 mm
06:24 23.6 °F /  -4.7 °C 8.1 °F /  -13.3 °C 30.50 in /  1032.7 hPa West 3.7 mph /  6 km/h 6.0 mph /  9.7 km/h 51 % 0.00 in /  0 mm
06:29 23.6 °F /  -4.7 °C 7.2 °F /  -13.8 °C 30.51 in /  1033.1 hPa NW 2.5 mph /  4 km/h 4.6 mph /  7.4 km/h 49 % 0.00 in /  0 mm
06:34 23.6 °F /  -4.7 °C 7.2 °F /  -13.8 °C 30.51 in /  1033.1 hPa North 4.0 mph /  6.4 km/h 5.0 mph /  8 km/h 49 % 0.00 in /  0 mm
06:39 23.7 °F /  -4.6 °C 6.8 °F /  -14 °C 30.51 in /  1033.1 hPa NW 5.0 mph /  8 km/h 7.0 mph /  11.3 km/h 48 % 0.00 in /  0 mm
06:44 23.6 °F /  -4.7 °C 7.7 °F /  -13.5 °C 30.51 in /  1033.1 hPa NNW 4.1 mph /  6.6 km/h 8.1 mph /  13 km/h 50 % 0.00 in /  0 mm
06:49 23.6 °F /  -4.7 °C 6.8 °F /  -14 °C 30.51 in /  1033.1 hPa NNW 4.3 mph /  6.9 km/h 9.2 mph /  14.8 km/h 48 % 0.00 in /  0 mm
06:54 23.7 °F /  -4.6 °C 7.7 °F /  -13.5 °C 30.52 in /  1033.4 hPa NNW 6.2 mph /  10 km/h 9.2 mph /  14.8 km/h 50 % 0.00 in /  0 mm
06:59 23.7 °F /  -4.6 °C 8.2 °F /  -13.2 °C 30.52 in /  1033.4 hPa NW 4.6 mph /  7.4 km/h 6.9 mph /  11.1 km/h 51 % 0.00 in /  0 mm
07:04 23.7 °F /  -4.6 °C 7.3 °F /  -13.7 °C 30.52 in /  1033.4 hPa NW 6.3 mph /  10.1 km/h 9.2 mph /  14.8 km/h 49 % 0.00 in /  0 mm
07:09 23.8 °F /  -4.6 °C 7.4 °F /  -13.7 °C 30.52 in /  1033.4 hPa NNW 5.2 mph /  8.4 km/h 8.0 mph /  12.9 km/h 49 % 0.00 in /  0 mm
07:14 23.9 °F /  -4.5 °C 7.5 °F /  -13.6 °C 30.53 in /  1033.7 hPa WNW 7.9 mph /  12.7 km/h 12.7 mph /  20.4 km/h 49 % 0.00 in /  0 mm
07:19 23.9 °F /  -4.5 °C 6.6 °F /  -14.1 °C 30.53 in /  1033.7 hPa NW 4.5 mph /  7.2 km/h 6.9 mph /  11.1 km/h 47 % 0.00 in /  0 mm
07:24 24.0 °F /  -4.4 °C 6.7 °F /  -14.1 °C 30.53 in /  1033.7 hPa NW 5.7 mph /  9.2 km/h 6.9 mph /  11.1 km/h 47 % 0.00 in /  0 mm
07:29 24.2 °F /  -4.3 °C 7.8 °F /  -13.4 °C 30.53 in /  1033.7 hPa WNW 4.5 mph /  7.2 km/h 8.1 mph /  13 km/h 49 % 0.00 in /  0 mm
07:34 24.3 °F /  -4.3 °C 7.4 °F /  -13.7 °C 30.54 in /  1034.1 hPa NNW 7.7 mph /  12.4 km/h 10.4 mph /  16.7 km/h 48 % 0.00 in /  0 mm
07:40 24.5 °F /  -4.2 °C 7.6 °F /  -13.6 °C 30.54 in /  1034.1 hPa NW 2.5 mph /  4 km/h 5.8 mph /  9.3 km/h 48 % 0.00 in /  0 mm
07:45 24.8 °F /  -4 °C 7.9 °F /  -13.4 °C 30.54 in /  1034.1 hPa North 4.0 mph /  6.4 km/h 8.1 mph /  13 km/h 48 % 0.00 in /  0 mm
07:50 25.0 °F /  -3.9 °C 7.6 °F /  -13.6 °C 30.54 in /  1034.1 hPa NNW 6.5 mph /  10.5 km/h 11.5 mph /  18.5 km/h 47 % 0.00 in /  0 mm
07:55 25.2 °F /  -3.8 °C 7.8 °F /  -13.4 °C 30.54 in /  1034.1 hPa NNW 4.3 mph /  6.9 km/h 15.0 mph /  24.1 km/h 47 % 0.00 in /  0 mm
08:00 25.4 °F /  -3.7 °C 8.4 °F /  -13.1 °C 30.54 in /  1034.1 hPa NNW 3.1 mph /  5 km/h 5.8 mph /  9.3 km/h 48 % 0.00 in /  0 mm
08:05 25.6 °F /  -3.6 °C 7.7 °F /  -13.5 °C 30.54 in /  1034.1 hPa NW 5.2 mph /  8.4 km/h 9.2 mph /  14.8 km/h 46 % 0.00 in /  0 mm
08:10 25.7 °F /  -3.5 °C 7.3 °F /  -13.7 °C 30.54 in /  1034.1 hPa NW 3.5 mph /  5.6 km/h 11.5 mph /  18.5 km/h 45 % 0.00 in /  0 mm
08:15 25.8 °F /  -3.4 °C 8.3 °F /  -13.2 °C 30.55 in /  1034.4 hPa WNW 6.0 mph /  9.7 km/h 10.4 mph /  16.7 km/h 47 % 0.00 in /  0 mm
08:20 26.0 °F /  -3.3 °C 7.5 °F /  -13.6 °C 30.54 in /  1034.1 hPa WNW 4.8 mph /  7.7 km/h 10.4 mph /  16.7 km/h 45 % 0.00 in /  0 mm
08:25 26.3 °F /  -3.2 °C 7.8 °F /  -13.4 °C 30.55 in /  1034.4 hPa WNW 8.4 mph /  13.5 km/h 11.5 mph /  18.5 km/h 45 % 0.00 in /  0 mm
08:30 26.5 °F /  -3.1 °C 7.0 °F /  -13.9 °C 30.55 in /  1034.4 hPa NNW 4.3 mph /  6.9 km/h 16.1 mph /  25.9 km/h 43 % 0.00 in /  0 mm
08:35 26.7 °F /  -2.9 °C 8.2 °F /  -13.2 °C 30.55 in /  1034.4 hPa NNW 7.2 mph /  11.6 km/h 11.5 mph /  18.5 km/h 45 % 0.00 in /  0 mm
08:40 27.1 °F /  -2.7 °C 8.0 °F /  -13.3 °C 30.55 in /  1034.4 hPa NNW 5.9 mph /  9.5 km/h 8.1 mph /  13 km/h 44 % 0.00 in /  0 mm
08:45 27.4 °F /  -2.6 °C 7.8 °F /  -13.4 °C 30.55 in /  1034.4 hPa NNW 4.1 mph /  6.6 km/h 9.0 mph /  14.5 km/h 43 % 0.00 in /  0 mm
08:50 27.6 °F /  -2.4 °C 8.0 °F /  -13.3 °C 30.55 in /  1034.4 hPa West 5.8 mph /  9.3 km/h 8.1 mph /  13 km/h 43 % 0.00 in /  0 mm
08:55 27.8 °F /  -2.3 °C 7.6 °F /  -13.6 °C 30.56 in /  1034.8 hPa WNW 5.0 mph /  8 km/h 11.0 mph /  17.7 km/h 42 % 0.00 in /  0 mm
09:00 28.0 °F /  -2.2 °C 7.3 °F /  -13.7 °C 30.56 in /  1034.8 hPa NW 4.6 mph /  7.4 km/h 16.1 mph /  25.9 km/h 41 % 0.00 in /  0 mm
09:05 28.2 °F /  -2.1 °C 8.0 °F /  -13.3 °C 30.56 in /  1034.8 hPa NW 4.2 mph /  6.8 km/h 10.4 mph /  16.7 km/h 42 % 0.00 in /  0 mm
09:11 28.4 °F /  -2 °C 8.7 °F /  -12.9 °C 30.55 in /  1034.4 hPa NW 3.9 mph /  6.3 km/h 13.8 mph /  22.2 km/h 43 % 0.00 in /  0 mm
09:16 28.5 °F /  -1.9 °C 8.8 °F /  -12.9 °C 30.56 in /  1034.8 hPa NW 5.7 mph /  9.2 km/h 11.5 mph /  18.5 km/h 43 % 0.00 in /  0 mm
09:21 28.7 °F /  -1.8 °C 9.0 °F /  -12.8 °C 30.56 in /  1034.8 hPa North 8.0 mph /  12.9 km/h 12.7 mph /  20.4 km/h 43 % 0.00 in /  0 mm
09:26 28.9 °F /  -1.7 °C 9.7 °F /  -12.4 °C 30.56 in /  1034.8 hPa NW 5.6 mph /  9 km/h 10.4 mph /  16.7 km/h 44 % 0.00 in /  0 mm
09:31 29.0 °F /  -1.7 °C 9.8 °F /  -12.3 °C 30.56 in /  1034.8 hPa WNW 6.5 mph /  10.5 km/h 11.5 mph /  18.5 km/h 44 % 0.00 in /  0 mm
09:36 29.0 °F /  -1.7 °C 8.7 °F /  -12.9 °C 30.56 in /  1034.8 hPa NW 6.2 mph /  10 km/h 11.5 mph /  18.5 km/h 42 % 0.00 in /  0 mm
09:41 29.2 °F /  -1.6 °C 8.9 °F /  -12.8 °C 30.56 in /  1034.8 hPa NW 5.6 mph /  9 km/h 9.2 mph /  14.8 km/h 42 % 0.00 in /  0 mm
09:46 29.4 °F /  -1.4 °C 9.1 °F /  -12.7 °C 30.56 in /  1034.8 hPa WNW 6.1 mph /  9.8 km/h 11.5 mph /  18.5 km/h 42 % 0.00 in /  0 mm
09:51 29.7 °F /  -1.3 °C 8.3 °F /  -13.2 °C 30.56 in /  1034.8 hPa NW 7.2 mph /  11.6 km/h 16.0 mph /  25.7 km/h 40 % 0.00 in /  0 mm
09:56 29.7 °F /  -1.3 °C 7.2 °F /  -13.8 °C 30.56 in /  1034.8 hPa NNW 8.8 mph /  14.2 km/h 11.5 mph /  18.5 km/h 38 % 0.00 in /  0 mm
10:01 29.9 °F /  -1.2 °C 8.5 °F /  -13.1 °C 30.56 in /  1034.8 hPa NNW 5.0 mph /  8 km/h 9.2 mph /  14.8 km/h 40 % 0.00 in /  0 mm
10:06 30.3 °F /  -0.9 °C 8.3 °F /  -13.2 °C 30.56 in /  1034.8 hPa NNW 6.3 mph /  10.1 km/h 9.2 mph /  14.8 km/h 39 % 0.00 in /  0 mm
10:11 30.6 °F /  -0.8 °C 8.0 °F /  -13.3 °C 30.56 in /  1034.8 hPa NW 6.8 mph /  10.9 km/h 8.1 mph /  13 km/h 38 % 0.00 in /  0 mm
10:16 30.9 °F /  -0.6 °C 7.6 °F /  -13.6 °C 30.56 in /  1034.8 hPa NW 5.1 mph /  8.2 km/h 6.9 mph /  11.1 km/h 37 % 0.00 in /  0 mm
10:21 31.0 °F /  -0.6 °C 7.1 °F /  -13.8 °C 30.56 in /  1034.8 hPa North 5.4 mph /  8.7 km/h 9.2 mph /  14.8 km/h 36 % 0.00 in /  0 mm
10:27 31.2 °F /  -0.4 °C 7.3 °F /  -13.7 °C 30.56 in /  1034.8 hPa NW 8.0 mph /  12.9 km/h 13.0 mph /  20.9 km/h 36 % 0.00 in /  0 mm
10:32 31.5 °F /  -0.3 °C 8.2 °F /  -13.2 °C 30.56 in /  1034.8 hPa NW 2.9 mph /  4.7 km/h 11.5 mph /  18.5 km/h 37 % 0.00 in /  0 mm
10:37 32.0 °F /  0 °C 8.0 °F /  -13.3 °C 30.56 in /  1034.8 hPa NNW 2.4 mph /  3.9 km/h 5.8 mph /  9.3 km/h 36 % 0.00 in /  0 mm
10:42 32.6 °F /  0.3 °C 8.6 °F /  -13 °C 30.56 in /  1034.8 hPa NNW 5.5 mph /  8.9 km/h 9.2 mph /  14.8 km/h 36 % 0.00 in /  0 mm
10:47 32.9 °F /  0.5 °C 8.2 °F /  -13.2 °C 30.56 in /  1034.8 hPa WNW 7.4 mph /  11.9 km/h 12.7 mph /  20.4 km/h 35 % 0.00 in /  0 mm
10:52 33.0 °F /  0.6 °C 7.6 °F /  -13.6 °C 30.56 in /  1034.8 hPa WNW 7.0 mph /  11.3 km/h 7.0 mph /  11.3 km/h 34 % 0.00 in /  0 mm
10:57 33.2 °F /  0.7 °C 8.5 °F /  -13.1 °C 30.56 in /  1034.8 hPa NW 5.3 mph /  8.5 km/h 11.5 mph /  18.5 km/h 35 % 0.00 in /  0 mm
11:02 33.7 °F /  0.9 °C 8.9 °F /  -12.8 °C 30.56 in /  1034.8 hPa NNW 3.0 mph /  4.8 km/h 5.8 mph /  9.3 km/h 35 % 0.00 in /  0 mm
11:07 34.3 °F /  1.3 °C 9.4 °F /  -12.6 °C 30.56 in /  1034.8 hPa NW 3.2 mph /  5.1 km/h 5.0 mph /  8 km/h 35 % 0.00 in /  0 mm
11:12 34.7 °F /  1.5 °C 9.1 °F /  -12.7 °C 30.55 in /  1034.4 hPa North 3.1 mph /  5 km/h 5.0 mph /  8 km/h 34 % 0.00 in /  0 mm
11:17 35.1 °F /  1.7 °C 8.8 °F /  -12.9 °C 30.55 in /  1034.4 hPa North 6.5 mph /  10.5 km/h 11.5 mph /  18.5 km/h 33 % 0.00 in /  0 mm
11:22 35.9 °F /  2.2 °C 10.2 °F /  -12.1 °C 30.55 in /  1034.4 hPa NW 4.5 mph /  7.2 km/h 7.0 mph /  11.3 km/h 34 % 0.00 in /  0 mm
11:23 36.0 °F /  2.2 °C 9.6 °F /  -12.4 °C 30.55 in /  1034.4 hPa NNW 5.6 mph /  9 km/h 7.0 mph /  11.3 km/h 33 % 0.00 in /  0 mm
11:28 36.3 °F /  2.4 °C 8.5 °F /  -13.1 °C 30.55 in /  1034.4 hPa NW 5.8 mph /  9.3 km/h 8.1 mph /  13 km/h 31 % 0.00 in /  0 mm
11:33 36.5 °F /  2.5 °C 7.2 °F /  -13.8 °C 30.55 in /  1034.4 hPa NW 4.8 mph /  7.7 km/h 8.1 mph /  13 km/h 29 % 0.00 in /  0 mm
11:38 36.5 °F /  2.5 °C 8.0 °F /  -13.3 °C 30.55 in /  1034.4 hPa NNW 6.1 mph /  9.8 km/h 9.2 mph /  14.8 km/h 30 % 0.00 in /  0 mm
11:43 36.8 °F /  2.7 °C 8.2 °F /  -13.2 °C 30.55 in /  1034.4 hPa NW 5.6 mph /  9 km/h 8.1 mph /  13 km/h 30 % 0.00 in /  0 mm
11:48 37.0 °F /  2.8 °C 8.4 °F /  -13.1 °C 30.55 in /  1034.4 hPa North 6.6 mph /  10.6 km/h 8.1 mph /  13 km/h 30 % 0.00 in /  0 mm
11:53 37.0 °F /  2.8 °C 8.4 °F /  -13.1 °C 30.55 in /  1034.4 hPa NW 5.5 mph /  8.9 km/h 11.5 mph /  18.5 km/h 30 % 0.00 in /  0 mm
11:58 37.3 °F /  2.9 °C 10.1 °F /  -12.2 °C 30.55 in /  1034.4 hPa NNE 4.0 mph /  6.4 km/h 8.1 mph /  13 km/h 32 % 0.00 in /  0 mm
12:03 37.7 °F /  3.2 °C 9.7 °F /  -12.4 °C 30.54 in /  1034.1 hPa NW 5.2 mph /  8.4 km/h 8.1 mph /  13 km/h 31 % 0.00 in /  0 mm
12:08 38.0 °F /  3.3 °C 8.5 °F /  -13.1 °C 30.54 in /  1034.1 hPa NNW 3.8 mph /  6.1 km/h 9.2 mph /  14.8 km/h 29 % 0.00 in /  0 mm
12:13 38.3 °F /  3.5 °C 9.5 °F /  -12.5 °C 30.54 in /  1034.1 hPa WNW 5.3 mph /  8.5 km/h 11.5 mph /  18.5 km/h 30 % 0.00 in /  0 mm
12:19 38.5 °F /  3.6 °C 9.7 °F /  -12.4 °C 30.54 in /  1034.1 hPa WNW 4.9 mph /  7.9 km/h 7.0 mph /  11.3 km/h 30 % 0.00 in /  0 mm
12:24 38.7 °F /  3.7 °C 9.9 °F /  -12.3 °C 30.54 in /  1034.1 hPa NW 3.3 mph /  5.3 km/h 9.2 mph /  14.8 km/h 30 % 0.00 in /  0 mm
12:29 38.6 °F /  3.7 °C 9.0 °F /  -12.8 °C 30.54 in /  1034.1 hPa WNW 4.5 mph /  7.2 km/h 8.1 mph /  13 km/h 29 % 0.00 in /  0 mm
12:34 38.7 °F /  3.7 °C 9.9 °F /  -12.3 °C 30.54 in /  1034.1 hPa WNW 4.2 mph /  6.8 km/h 12.0 mph /  19.3 km/h 30 % 0.00 in /  0 mm
12:39 39.1 °F /  3.9 °C 12.4 °F /  -10.9 °C 30.53 in /  1033.7 hPa NNW 5.3 mph /  8.5 km/h 9.2 mph /  14.8 km/h 33 % 0.00 in /  0 mm
12:40 39.1 °F /  3.9 °C 10.2 °F /  -12.1 °C 30.53 in /  1033.7 hPa WNW 4.3 mph /  6.9 km/h 8.1 mph /  13 km/h 30 % 0.00 in /  0 mm
12:45 39.0 °F /  3.9 °C 7.8 °F /  -13.4 °C 30.53 in /  1033.7 hPa NW 5.8 mph /  9.3 km/h 8.1 mph /  13 km/h 27 % 0.00 in /  0 mm
12:50 38.6 °F /  3.7 °C 9.8 °F /  -12.3 °C 30.53 in /  1033.7 hPa NW 4.6 mph /  7.4 km/h 8.1 mph /  13 km/h 30 % 0.00 in /  0 mm
12:55 38.9 °F /  3.8 °C 10.8 °F /  -11.8 °C 30.53 in /  1033.7 hPa NNW 5.2 mph /  8.4 km/h 9.2 mph /  14.8 km/h 31 % 0.00 in /  0 mm
13:01 39.6 °F /  4.2 °C 12.1 °F /  -11.1 °C 30.53 in /  1033.7 hPa NNW 6.0 mph /  9.7 km/h 10.0 mph /  16.1 km/h 32 % 0.00 in /  0 mm
13:06 39.4 °F /  4.1 °C 10.5 °F /  -11.9 °C 30.53 in /  1033.7 hPa West 6.9 mph /  11.1 km/h 11.5 mph /  18.5 km/h 30 % 0.00 in /  0 mm
13:11 39.6 °F /  4.2 °C 11.4 °F /  -11.4 °C 30.53 in /  1033.7 hPa WSW 7.7 mph /  12.4 km/h 12.0 mph /  19.3 km/h 31 % 0.00 in /  0 mm
13:16 39.8 °F /  4.3 °C 11.6 °F /  -11.3 °C 30.53 in /  1033.7 hPa West 3.2 mph /  5.1 km/h 7.0 mph /  11.3 km/h 31 % 0.00 in /  0 mm
13:21 39.7 °F /  4.3 °C 9.2 °F /  -12.7 °C 30.53 in /  1033.7 hPa West 4.6 mph /  7.4 km/h 6.9 mph /  11.1 km/h 28 % 0.00 in /  0 mm
13:26 39.3 °F /  4.1 °C 10.4 °F /  -12 °C 30.53 in /  1033.7 hPa NW 2.8 mph /  4.5 km/h 9.2 mph /  14.8 km/h 30 % 0.00 in /  0 mm
13:31 39.0 °F /  3.9 °C 8.6 °F /  -13 °C 30.52 in /  1033.4 hPa WSW 3.8 mph /  6.1 km/h 6.9 mph /  11.1 km/h 28 % 0.00 in /  0 mm
13:36 38.8 °F /  3.8 °C 8.4 °F /  -13.1 °C 30.52 in /  1033.4 hPa WNW 6.6 mph /  10.6 km/h 11.5 mph /  18.5 km/h 28 % 0.00 in /  0 mm
13:41 39.2 °F /  4 °C 10.3 °F /  -12.1 °C 30.52 in /  1033.4 hPa SW 6.7 mph /  10.8 km/h 13.0 mph /  20.9 km/h 30 % 0.00 in /  0 mm
13:46 39.3 °F /  4.1 °C 10.4 °F /  -12 °C 30.52 in /  1033.4 hPa NW 1.6 mph /  2.6 km/h 4.0 mph /  6.4 km/h 30 % 0.00 in /  0 mm
13:51 39.6 °F /  4.2 °C 9.1 °F /  -12.7 °C 30.52 in /  1033.4 hPa WNW 6.4 mph /  10.3 km/h 6.9 mph /  11.1 km/h 28 % 0.00 in /  0 mm
13:56 40.0 °F /  4.4 °C 11.0 °F /  -11.7 °C 30.51 in /  1033.1 hPa West 5.6 mph /  9 km/h 10.4 mph /  16.7 km/h 30 % 0.00 in /  0 mm
14:01 40.7 °F /  4.8 °C 10.1 °F /  -12.2 °C 30.51 in /  1033.1 hPa NW 6.2 mph /  10 km/h 10.4 mph /  16.7 km/h 28 % 0.00 in /  0 mm
14:06 40.6 °F /  4.8 °C 10.0 °F /  -12.2 °C 30.51 in /  1033.1 hPa WNW 5.3 mph /  8.5 km/h 11.5 mph /  18.5 km/h 28 % 0.00 in /  0 mm
14:11 40.7 °F /  4.8 °C 10.9 °F /  -11.7 °C 30.51 in /  1033.1 hPa WNW 5.9 mph /  9.5 km/h 11.0 mph /  17.7 km/h 29 % 0.00 in /  0 mm
14:16 40.4 °F /  4.7 °C 9.0 °F /  -12.8 °C 30.51 in /  1033.1 hPa WNW 6.1 mph /  9.8 km/h 10.4 mph /  16.7 km/h 27 % 0.00 in /  0 mm
14:21 40.2 °F /  4.6 °C 10.4 °F /  -12 °C 30.51 in /  1033.1 hPa WNW 7.1 mph /  11.4 km/h 11.5 mph /  18.5 km/h 29 % 0.00 in /  0 mm
14:26 40.0 °F /  4.4 °C 9.5 °F /  -12.5 °C 30.51 in /  1033.1 hPa WNW 6.9 mph /  11.1 km/h 12.7 mph /  20.4 km/h 28 % 0.00 in /  0 mm
14:31 40.1 °F /  4.5 °C 9.6 °F /  -12.4 °C 30.50 in /  1032.7 hPa West 1.6 mph /  2.6 km/h 5.0 mph /  8 km/h 28 % 0.00 in /  0 mm
14:36 40.3 °F /  4.6 °C 11.3 °F /  -11.5 °C 30.50 in /  1032.7 hPa West 5.9 mph /  9.5 km/h 11.5 mph /  18.5 km/h 30 % 0.00 in /  0 mm
14:41 40.5 °F /  4.7 °C 9.9 °F /  -12.3 °C 30.50 in /  1032.7 hPa NW 8.3 mph /  13.4 km/h 12.7 mph /  20.4 km/h 28 % 0.00 in /  0 mm
14:46 40.5 °F /  4.7 °C 9.1 °F /  -12.7 °C 30.50 in /  1032.7 hPa WNW 7.6 mph /  12.2 km/h 12.7 mph /  20.4 km/h 27 % 0.00 in /  0 mm
14:51 40.6 °F /  4.8 °C 10.0 °F /  -12.2 °C 30.50 in /  1032.7 hPa NW 5.9 mph /  9.5 km/h 11.5 mph /  18.5 km/h 28 % 0.00 in /  0 mm
14:56 40.7 °F /  4.8 °C 10.9 °F /  -11.7 °C 30.50 in /  1032.7 hPa NW 3.1 mph /  5 km/h 6.0 mph /  9.7 km/h 29 % 0.00 in /  0 mm
15:01 40.8 °F /  4.9 °C 10.9 °F /  -11.7 °C 30.50 in /  1032.7 hPa NW 5.3 mph /  8.5 km/h 11.5 mph /  18.5 km/h 29 % 0.00 in /  0 mm
15:06 41.1 °F /  5.1 °C 11.2 °F /  -11.6 °C 30.50 in /  1032.7 hPa West 4.9 mph /  7.9 km/h 9.2 mph /  14.8 km/h 29 % 0.00 in /  0 mm
15:11 41.1 °F /  5.1 °C 9.6 °F /  -12.4 °C 30.50 in /  1032.7 hPa NW 5.7 mph /  9.2 km/h 9.2 mph /  14.8 km/h 27 % 0.00 in /  0 mm
15:16 41.0 °F /  5 °C 9.5 °F /  -12.5 °C 30.50 in /  1032.7 hPa WNW 6.4 mph /  10.3 km/h 9.2 mph /  14.8 km/h 27 % 0.00 in /  0 mm
15:21 41.0 °F /  5 °C 8.7 °F /  -12.9 °C 30.49 in /  1032.4 hPa NW 4.3 mph /  6.9 km/h 11.5 mph /  18.5 km/h 26 % 0.00 in /  0 mm
15:26 40.8 °F /  4.9 °C 10.2 °F /  -12.1 °C 30.49 in /  1032.4 hPa WSW 4.3 mph /  6.9 km/h 9.0 mph /  14.5 km/h 28 % 0.00 in /  0 mm
15:31 40.5 °F /  4.7 °C 9.1 °F /  -12.7 °C 30.49 in /  1032.4 hPa NW 9.4 mph /  15.1 km/h 13.8 mph /  22.2 km/h 27 % 0.00 in /  0 mm
15:36 40.4 °F /  4.7 °C 9.0 °F /  -12.8 °C 30.49 in /  1032.4 hPa WNW 6.0 mph /  9.7 km/h 9.2 mph /  14.8 km/h 27 % 0.00 in /  0 mm
15:41 40.2 °F /  4.6 °C 8.8 °F /  -12.9 °C 30.49 in /  1032.4 hPa West 7.6 mph /  12.2 km/h 12.7 mph /  20.4 km/h 27 % 0.00 in /  0 mm
15:46 40.3 °F /  4.6 °C 9.7 °F /  -12.4 °C 30.49 in /  1032.4 hPa WSW 4.8 mph /  7.7 km/h 10.4 mph /  16.7 km/h 28 % 0.00 in /  0 mm
15:51 40.4 °F /  4.7 °C 9.0 °F /  -12.8 °C 30.49 in /  1032.4 hPa WSW 8.2 mph /  13.2 km/h 10.4 mph /  16.7 km/h 27 % 0.00 in /  0 mm
15:56 40.6 °F /  4.8 °C 10.8 °F /  -11.8 °C 30.49 in /  1032.4 hPa SW 6.9 mph /  11.1 km/h 8.1 mph /  13 km/h 29 % 0.00 in /  0 mm
16:01 40.7 °F /  4.8 °C 9.3 °F /  -12.6 °C 30.49 in /  1032.4 hPa West 5.7 mph /  9.2 km/h 13.0 mph /  20.9 km/h 27 % 0.00 in /  0 mm
16:06 40.8 °F /  4.9 °C 10.2 °F /  -12.1 °C 30.48 in /  1032.1 hPa West 5.0 mph /  8 km/h 8.1 mph /  13 km/h 28 % 0.00 in /  0 mm
16:11 41.1 °F /  5.1 °C 8.8 °F /  -12.9 °C 30.48 in /  1032.1 hPa WNW 5.6 mph /  9 km/h 11.0 mph /  17.7 km/h 26 % 0.00 in /  0 mm
16:17 41.2 °F /  5.1 °C 8.8 °F /  -12.9 °C 30.48 in /  1032.1 hPa NW 5.3 mph /  8.5 km/h 11.5 mph /  18.5 km/h 26 % 0.00 in /  0 mm
16:22 41.3 °F /  5.2 °C 8.9 °F /  -12.8 °C 30.48 in /  1032.1 hPa West 4.7 mph /  7.6 km/h 8.1 mph /  13 km/h 26 % 0.00 in /  0 mm
16:27 41.5 °F /  5.3 °C 10.8 °F /  -11.8 °C 30.48 in /  1032.1 hPa West 5.1 mph /  8.2 km/h 10.4 mph /  16.7 km/h 28 % 0.00 in /  0 mm
16:32 41.6 °F /  5.3 °C 9.2 °F /  -12.7 °C 30.48 in /  1032.1 hPa WNW 4.0 mph /  6.4 km/h 9.2 mph /  14.8 km/h 26 % 0.00 in /  0 mm
16:37 41.8 °F /  5.4 °C 9.4 °F /  -12.6 °C 30.48 in /  1032.1 hPa NNW 2.2 mph /  3.5 km/h 6.9 mph /  11.1 km/h 26 % 0.00 in /  0 mm
16:42 41.9 °F /  5.5 °C 11.9 °F /  -11.2 °C 30.48 in /  1032.1 hPa West 4.1 mph /  6.6 km/h 6.9 mph /  11.1 km/h 29 % 0.00 in /  0 mm
16:47 42.0 °F /  5.6 °C 11.2 °F /  -11.6 °C 30.48 in /  1032.1 hPa WNW 5.2 mph /  8.4 km/h 8.1 mph /  13 km/h 28 % 0.00 in /  0 mm
16:52 42.0 °F /  5.6 °C 12.0 °F /  -11.1 °C 30.48 in /  1032.1 hPa NW 1.1 mph /  1.8 km/h 3.5 mph /  5.6 km/h 29 % 0.00 in /  0 mm
16:57 41.9 °F /  5.5 °C 9.5 °F /  -12.5 °C 30.47 in /  1031.7 hPa NW 5.6 mph /  9 km/h 8.0 mph /  12.9 km/h 26 % 0.00 in /  0 mm
17:02 42.0 °F /  5.6 °C 9.5 °F /  -12.5 °C 30.47 in /  1031.7 hPa NW 3.1 mph /  5 km/h 5.8 mph /  9.3 km/h 26 % 0.00 in /  0 mm
17:07 41.9 °F /  5.5 °C 9.5 °F /  -12.5 °C 30.47 in /  1031.7 hPa NW 4.6 mph /  7.4 km/h 10.0 mph /  16.1 km/h 26 % 0.00 in /  0 mm
17:12 41.6 °F /  5.3 °C 9.2 °F /  -12.7 °C 30.47 in /  1031.7 hPa WNW 4.0 mph /  6.4 km/h 10.4 mph /  16.7 km/h 26 % 0.00 in /  0 mm
17:17 41.4 °F /  5.2 °C 9.9 °F /  -12.3 °C 30.46 in /  1031.4 hPa WNW 1.7 mph /  2.7 km/h 11.0 mph /  17.7 km/h 27 % 0.00 in /  0 mm
17:22 41.1 °F /  5.1 °C 8.8 °F /  -12.9 °C 30.47 in /  1031.7 hPa NW 3.2 mph /  5.1 km/h 6.9 mph /  11.1 km/h 26 % 0.00 in /  0 mm
17:27 40.8 °F /  4.9 °C 9.3 °F /  -12.6 °C 30.46 in /  1031.4 hPa WNW 1.1 mph /  1.8 km/h 3.5 mph /  5.6 km/h 27 % 0.00 in /  0 mm
17:31 40.6 °F /  4.8 °C 8.3 °F /  -13.2 °C 30.47 in /  1031.7 hPa WNW 3.2 mph /  5.1 km/h 8.1 mph /  13 km/h 26 % 0.00 in /  0 mm
17:36 40.4 °F /  4.7 °C 9.0 °F /  -12.8 °C 30.47 in /  1031.7 hPa WNW 1.7 mph /  2.7 km/h 5.8 mph /  9.3 km/h 27 % 0.00 in /  0 mm
17:41 40.2 °F /  4.6 °C 8.8 °F /  -12.9 °C 30.47 in /  1031.7 hPa West 0.5 mph /  0.8 km/h 4.6 mph /  7.4 km/h 27 % 0.00 in /  0 mm
17:46 40.1 °F /  4.5 °C 8.7 °F /  -12.9 °C 30.47 in /  1031.7 hPa North 3.1 mph /  5 km/h 5.8 mph /  9.3 km/h 27 % 0.00 in /  0 mm
17:52 40.0 °F /  4.4 °C 10.3 °F /  -12.1 °C 30.47 in /  1031.7 hPa West 4.0 mph /  6.4 km/h 6.9 mph /  11.1 km/h 29 % 0.00 in /  0 mm
17:57 40.0 °F /  4.4 °C 8.7 °F /  -12.9 °C 30.47 in /  1031.7 hPa West 4.5 mph /  7.2 km/h 5.8 mph /  9.3 km/h 27 % 0.00 in /  0 mm
18:02 39.9 °F /  4.4 °C 7.7 °F /  -13.5 °C 30.47 in /  1031.7 hPa WNW 4.9 mph /  7.9 km/h 6.9 mph /  11.1 km/h 26 % 0.00 in /  0 mm
18:07 39.8 °F /  4.3 °C 8.5 °F /  -13.1 °C 30.47 in /  1031.7 hPa NW 2.8 mph /  4.5 km/h 5.8 mph /  9.3 km/h 27 % 0.00 in /  0 mm
18:12 39.7 °F /  4.3 °C 8.4 °F /  -13.1 °C 30.47 in /  1031.7 hPa West 3.4 mph /  5.5 km/h 6.0 mph /  9.7 km/h 27 % 0.00 in /  0 mm
18:17 39.6 °F /  4.2 °C 8.3 °F /  -13.2 °C 30.47 in /  1031.7 hPa WNW 2.2 mph /  3.5 km/h 6.9 mph /  11.1 km/h 27 % 0.00 in /  0 mm
18:22 39.5 °F /  4.2 °C 8.2 °F /  -13.2 °C 30.47 in /  1031.7 hPa West 4.6 mph /  7.4 km/h 6.9 mph /  11.1 km/h 27 % 0.00 in /  0 mm
18:27 39.5 °F /  4.2 °C 7.4 °F /  -13.7 °C 30.47 in /  1031.7 hPa West 2.9 mph /  4.7 km/h 5.8 mph /  9.3 km/h 26 % 0.00 in /  0 mm
18:32 39.3 °F /  4.1 °C 8.9 °F /  -12.8 °C 30.47 in /  1031.7 hPa West 0.1 mph /  0.2 km/h 3.5 mph /  5.6 km/h 28 % 0.00 in /  0 mm
18:37 39.3 °F /  4.1 °C 10.4 °F /  -12 °C 30.47 in /  1031.7 hPa WSW 2.3 mph /  3.7 km/h 5.8 mph /  9.3 km/h 30 % 0.00 in /  0 mm
18:42 39.2 °F /  4 °C 11.0 °F /  -11.7 °C 30.48 in /  1032.1 hPa NW 1.4 mph /  2.3 km/h 5.8 mph /  9.3 km/h 31 % 0.00 in /  0 mm
18:47 39.1 °F /  3.9 °C 10.2 °F /  -12.1 °C 30.48 in /  1032.1 hPa West 4.6 mph /  7.4 km/h 5.0 mph /  8 km/h 30 % 0.00 in /  0 mm
18:52 39.0 °F /  3.9 °C 10.1 °F /  -12.2 °C 30.48 in /  1032.1 hPa West 2.7 mph /  4.3 km/h 6.0 mph /  9.7 km/h 30 % 0.00 in /  0 mm
18:57 38.8 °F /  3.8 °C 10.0 °F /  -12.2 °C 30.47 in /  1031.7 hPa NW 2.7 mph /  4.3 km/h 5.0 mph /  8 km/h 30 % 0.00 in /  0 mm
19:02 38.8 °F /  3.8 °C 10.0 °F /  -12.2 °C 30.48 in /  1032.1 hPa WNW 2.0 mph /  3.2 km/h 3.5 mph /  5.6 km/h 30 % 0.00 in /  0 mm
19:07 38.7 °F /  3.7 °C 9.9 °F /  -12.3 °C 30.48 in /  1032.1 hPa West 2.2 mph /  3.5 km/h 4.0 mph /  6.4 km/h 30 % 0.00 in /  0 mm
19:12 38.6 °F /  3.7 °C 9.8 °F /  -12.3 °C 30.48 in /  1032.1 hPa West 0.6 mph /  1 km/h 4.0 mph /  6.4 km/h 30 % 0.00 in /  0 mm
19:17 38.4 °F /  3.6 °C 9.6 °F /  -12.4 °C 30.48 in /  1032.1 hPa West 1.5 mph /  2.4 km/h 3.5 mph /  5.6 km/h 30 % 0.00 in /  0 mm
19:22 38.3 °F /  3.5 °C 10.3 °F /  -12.1 °C 30.49 in /  1032.4 hPa WNW 1.7 mph /  2.7 km/h 4.6 mph /  7.4 km/h 31 % 0.00 in /  0 mm
19:27 38.1 °F /  3.4 °C 10.1 °F /  -12.2 °C 30.48 in /  1032.1 hPa WNW 0.1 mph /  0.2 km/h 1.2 mph /  1.9 km/h 31 % 0.00 in /  0 mm
19:32 38.0 °F /  3.3 °C 10.7 °F /  -11.8 °C 30.49 in /  1032.4 hPa WNW 0.4 mph /  0.6 km/h 2.3 mph /  3.7 km/h 32 % 0.00 in /  0 mm
19:37 37.9 °F /  3.3 °C 10.6 °F /  -11.9 °C 30.48 in /  1032.1 hPa WNW 0.2 mph /  0.3 km/h 1.0 mph /  1.6 km/h 32 % 0.00 in /  0 mm
19:42 37.7 °F /  3.2 °C 11.8 °F /  -11.2 °C 30.48 in /  1032.1 hPa WNW 0.1 mph /  0.2 km/h 1.0 mph /  1.6 km/h 34 % 0.00 in /  0 mm
19:47 37.6 °F /  3.1 °C 12.4 °F /  -10.9 °C 30.48 in /  1032.1 hPa Calm   2.3 mph /  3.7 km/h 35 % 0.00 in /  0 mm
19:52 37.3 °F /  2.9 °C 12.7 °F /  -10.7 °C 30.48 in /  1032.1 hPa Calm     36 % 0.00 in /  0 mm
19:57 37.1 °F /  2.8 °C 13.8 °F /  -10.1 °C 30.48 in /  1032.1 hPa WNW 1.2 mph /  1.9 km/h 2.3 mph /  3.7 km/h 38 % 0.00 in /  0 mm
20:02 36.7 °F /  2.6 °C 14.0 °F /  -10 °C 30.49 in /  1032.4 hPa WNW 0.7 mph /  1.1 km/h 2.3 mph /  3.7 km/h 39 % 0.00 in /  0 mm
20:07 36.4 °F /  2.4 °C 13.8 °F /  -10.1 °C 30.49 in /  1032.4 hPa WNW 1.0 mph /  1.6 km/h 2.3 mph /  3.7 km/h 39 % 0.00 in /  0 mm
20:12 36.1 °F /  2.3 °C 14.1 °F /  -9.9 °C 30.50 in /  1032.7 hPa Calm     40 % 0.00 in /  0 mm
20:17 35.9 °F /  2.2 °C 13.9 °F /  -10.1 °C 30.50 in /  1032.7 hPa Calm     40 % 0.00 in /  0 mm
20:22 35.5 °F /  1.9 °C 14.6 °F /  -9.7 °C 30.50 in /  1032.7 hPa WNW 0.7 mph /  1.1 km/h 2.3 mph /  3.7 km/h 42 % 0.00 in /  0 mm
20:27 35.1 °F /  1.7 °C 14.3 °F /  -9.8 °C 30.50 in /  1032.7 hPa Calm   1.0 mph /  1.6 km/h 42 % 0.00 in /  0 mm
20:32 34.8 °F /  1.6 °C 13.5 °F /  -10.3 °C 30.50 in /  1032.7 hPa Calm     41 % 0.00 in /  0 mm
20:37 34.6 °F /  1.4 °C 13.8 °F /  -10.1 °C 30.50 in /  1032.7 hPa Calm     42 % 0.00 in /  0 mm
20:42 34.2 °F /  1.2 °C 13.5 °F /  -10.3 °C 30.50 in /  1032.7 hPa Calm     42 % 0.00 in /  0 mm
20:47 33.8 °F /  1 °C 13.7 °F /  -10.2 °C 30.50 in /  1032.7 hPa Calm   1.0 mph /  1.6 km/h 43 % 0.00 in /  0 mm
20:52 33.4 °F /  0.8 °C 13.3 °F /  -10.4 °C 30.50 in /  1032.7 hPa Calm   2.0 mph /  3.2 km/h 43 % 0.00 in /  0 mm
20:58 33.2 °F /  0.7 °C 13.1 °F /  -10.5 °C 30.51 in /  1033.1 hPa WNW 1.1 mph /  1.8 km/h 2.3 mph /  3.7 km/h 43 % 0.00 in /  0 mm
21:03 32.9 °F /  0.5 °C 12.3 °F /  -10.9 °C 30.51 in /  1033.1 hPa WNW 0.1 mph /  0.2 km/h 1.2 mph /  1.9 km/h 42 % 0.00 in /  0 mm
21:08 32.7 °F /  0.4 °C 12.6 °F /  -10.8 °C 30.52 in /  1033.4 hPa WNW 0.2 mph /  0.3 km/h 1.2 mph /  1.9 km/h 43 % 0.00 in /  0 mm
21:13 32.4 °F /  0.2 °C 12.9 °F /  -10.6 °C 30.52 in /  1033.4 hPa WNW 1.6 mph /  2.6 km/h 3.5 mph /  5.6 km/h 44 % 0.00 in /  0 mm
21:18 32.1 °F /  0.1 °C 13.1 °F /  -10.5 °C 30.53 in /  1033.7 hPa SW 4.2 mph /  6.8 km/h 6.9 mph /  11.1 km/h 45 % 0.00 in /  0 mm
21:23 31.9 °F /  -0.1 °C 14.9 °F /  -9.5 °C 30.54 in /  1034.1 hPa SSW 2.1 mph /  3.4 km/h 3.5 mph /  5.6 km/h 49 % 0.00 in /  0 mm
21:28 31.9 °F /  -0.1 °C 16.7 °F /  -8.5 °C 30.55 in /  1034.4 hPa SW 2.0 mph /  3.2 km/h 3.5 mph /  5.6 km/h 53 % 0.00 in /  0 mm
21:33 32.0 °F /  0 °C 18.1 °F /  -7.7 °C 30.54 in /  1034.1 hPa SW 3.3 mph /  5.3 km/h 4.6 mph /  7.4 km/h 56 % 0.00 in /  0 mm
21:38 32.2 °F /  0.1 °C 18.7 °F /  -7.4 °C 30.54 in /  1034.1 hPa SW 1.6 mph /  2.6 km/h 3.5 mph /  5.6 km/h 57 % 0.00 in /  0 mm
21:43 32.3 °F /  0.2 °C 19.2 °F /  -7.1 °C 30.54 in /  1034.1 hPa SW 2.8 mph /  4.5 km/h 4.6 mph /  7.4 km/h 58 % 0.00 in /  0 mm
21:48 32.4 °F /  0.2 °C 20.0 °F /  -6.7 °C 30.53 in /  1033.7 hPa SW 2.1 mph /  3.4 km/h 3.5 mph /  5.6 km/h 60 % 0.00 in /  0 mm
21:53 32.5 °F /  0.3 °C 20.5 °F /  -6.4 °C 30.53 in /  1033.7 hPa SW 4.0 mph /  6.4 km/h 4.0 mph /  6.4 km/h 61 % 0.00 in /  0 mm
21:58 32.7 °F /  0.4 °C 21.1 °F /  -6.1 °C 30.53 in /  1033.7 hPa SW 3.0 mph /  4.8 km/h 3.5 mph /  5.6 km/h 62 % 0.00 in /  0 mm
22:03 32.8 °F /  0.4 °C 21.6 °F /  -5.8 °C 30.54 in /  1034.1 hPa SSW 3.4 mph /  5.5 km/h 5.0 mph /  8 km/h 63 % 0.00 in /  0 mm
22:08 32.9 °F /  0.5 °C 21.7 °F /  -5.7 °C 30.55 in /  1034.4 hPa SSW 2.9 mph /  4.7 km/h 4.6 mph /  7.4 km/h 63 % 0.00 in /  0 mm
22:13 33.0 °F /  0.6 °C 21.8 °F /  -5.7 °C 30.54 in /  1034.1 hPa SW 1.7 mph /  2.7 km/h 3.5 mph /  5.6 km/h 63 % 0.00 in /  0 mm
22:14 33.0 °F /  0.6 °C 21.8 °F /  -5.7 °C 30.55 in /  1034.4 hPa SW 1.6 mph /  2.6 km/h 3.5 mph /  5.6 km/h 63 % 0.00 in /  0 mm
22:19 33.1 °F /  0.6 °C 22.2 °F /  -5.4 °C 30.55 in /  1034.4 hPa SW 1.7 mph /  2.7 km/h 5.8 mph /  9.3 km/h 64 % 0.00 in /  0 mm
22:24 33.2 °F /  0.7 °C 22.7 °F /  -5.2 °C 30.54 in /  1034.1 hPa SSW 2.4 mph /  3.9 km/h 4.0 mph /  6.4 km/h 65 % 0.00 in /  0 mm
22:29 33.2 °F /  0.7 °C 23.1 °F /  -4.9 °C 30.54 in /  1034.1 hPa SW 3.8 mph /  6.1 km/h 5.0 mph /  8 km/h 66 % 0.00 in /  0 mm
22:34 33.3 °F /  0.7 °C 23.2 °F /  -4.9 °C 30.54 in /  1034.1 hPa SW 4.0 mph /  6.4 km/h 7.0 mph /  11.3 km/h 66 % 0.00 in /  0 mm
22:39 33.4 °F /  0.8 °C 23.6 °F /  -4.7 °C 30.54 in /  1034.1 hPa SSW 2.2 mph /  3.5 km/h 4.0 mph /  6.4 km/h 67 % 0.00 in /  0 mm
22:44 33.5 °F /  0.8 °C 23.7 °F /  -4.6 °C 30.54 in /  1034.1 hPa WSW 1.3 mph /  2.1 km/h 3.5 mph /  5.6 km/h 67 % 0.00 in /  0 mm
22:49 33.5 °F /  0.8 °C 23.7 °F /  -4.6 °C 30.54 in /  1034.1 hPa WSW 2.2 mph /  3.5 km/h 4.6 mph /  7.4 km/h 67 % 0.00 in /  0 mm
22:54 33.5 °F /  0.8 °C 24.1 °F /  -4.4 °C 30.53 in /  1033.7 hPa SW 1.2 mph /  1.9 km/h 3.5 mph /  5.6 km/h 68 % 0.00 in /  0 mm
22:59 33.5 °F /  0.8 °C 24.1 °F /  -4.4 °C 30.53 in /  1033.7 hPa SW 3.3 mph /  5.3 km/h 4.0 mph /  6.4 km/h 68 % 0.00 in /  0 mm
23:04 33.5 °F /  0.8 °C 24.4 °F /  -4.2 °C 30.52 in /  1033.4 hPa SW 2.5 mph /  4 km/h 4.6 mph /  7.4 km/h 69 % 0.00 in /  0 mm
23:09 33.5 °F /  0.8 °C 24.4 °F /  -4.2 °C 30.51 in /  1033.1 hPa SW 2.6 mph /  4.2 km/h 4.6 mph /  7.4 km/h 69 % 0.00 in /  0 mm
23:14 33.5 °F /  0.8 °C 24.4 °F /  -4.2 °C 30.51 in /  1033.1 hPa SW 1.1 mph /  1.8 km/h 4.0 mph /  6.4 km/h 69 % 0.00 in /  0 mm
23:19 33.5 °F /  0.8 °C 24.8 °F /  -4 °C 30.51 in /  1033.1 hPa SSW 2.6 mph /  4.2 km/h 4.6 mph /  7.4 km/h 70 % 0.00 in /  0 mm
23:24 33.5 °F /  0.8 °C 24.8 °F /  -4 °C 30.51 in /  1033.1 hPa SSW 2.3 mph /  3.7 km/h 3.0 mph /  4.8 km/h 70 % 0.00 in /  0 mm
23:29 33.5 °F /  0.8 °C 24.8 °F /  -4 °C 30.51 in /  1033.1 hPa South 0.3 mph /  0.5 km/h 2.3 mph /  3.7 km/h 70 % 0.00 in /  0 mm
23:34 33.5 °F /  0.8 °C 24.8 °F /  -4 °C 30.50 in /  1032.7 hPa South 0.6 mph /  1 km/h 3.5 mph /  5.6 km/h 70 % 0.00 in /  0 mm
23:39 33.6 °F /  0.9 °C 25.2 °F /  -3.8 °C 30.50 in /  1032.7 hPa SSW 1.7 mph /  2.7 km/h 3.5 mph /  5.6 km/h 71 % 0.00 in /  0 mm
23:45 33.5 °F /  0.8 °C 25.1 °F /  -3.8 °C 30.50 in /  1032.7 hPa SSW 0.5 mph /  0.8 km/h 3.5 mph /  5.6 km/h 71 % 0.00 in /  0 mm
23:50 33.6 °F /  0.9 °C 25.2 °F /  -3.8 °C 30.50 in /  1032.7 hPa SSW 1.4 mph /  2.3 km/h 3.5 mph /  5.6 km/h 71 % 0.00 in /  0 mm
23:55 33.6 °F /  0.9 °C 25.5 °F /  -3.6 °C 30.50 in /  1032.7 hPa SSW 1.7 mph /  2.7 km/h 3.5 mph /  5.6 km/h 72 % 0.00 in /  0 mm
Crab Meadow Weather
Compliments of Weather Underground - 3 mb

Script developed by  Jim McMurry - jmcmurry@mwt.net Adapted for the template by  Wim van der Kuil - Leuven-Template.eu

Weather Terms: Rain/Showers - Rain is a nearly steady and uniform fall of precipitation over an area. Showers are intermittent and/or scattered convective rainfall of varying intensity.